createdAt,value
2022-11-16T00:02:28.213Z,24.02
2022-11-16T00:12:30.805Z,27.55
2022-11-16T00:22:33.478Z,18.10
2022-11-16T00:32:35.947Z,15.35
2022-11-16T00:42:38.511Z,10.65
2022-11-16T00:52:40.980Z,37.92
2022-11-16T01:02:43.638Z,34.33
2022-11-16T01:12:47.520Z,26.20
2022-11-16T01:22:50.085Z,17.27
2022-11-16T01:32:52.563Z,16.88
2022-11-16T01:42:55.069Z,16.38
2022-11-16T01:53:02.633Z,14.35
2022-11-16T02:03:05.118Z,9.63
2022-11-16T02:13:13.927Z,11.65
2022-11-16T02:23:54.407Z,9.88
2022-11-16T02:33:57.427Z,10.73
2022-11-16T02:44:15.950Z,20.83
2022-11-16T03:04:46.157Z,33.92
2022-11-16T03:15:11.623Z,30.77
2022-11-16T03:25:18.205Z,31.95
2022-11-16T03:35:25.802Z,27.52
2022-11-16T03:45:29.225Z,25.80
2022-11-16T03:55:31.499Z,21.80
2022-11-16T04:05:52.323Z,24.05
2022-11-16T04:16:13.164Z,22.63
2022-11-16T04:26:15.613Z,11.70
2022-11-16T04:36:36.386Z,19.48
2022-11-16T04:46:56.904Z,14.70
2022-11-16T04:56:59.076Z,10.50
2022-11-16T05:07:01.333Z,10.68
2022-11-16T05:17:03.914Z,16.75
2022-11-16T05:27:09.258Z,14.23
2022-11-16T05:37:11.631Z,18.35
2022-11-16T05:47:13.828Z,26.42
2022-11-16T05:57:16.089Z,20.23
2022-11-16T06:07:18.328Z,15.75
2022-11-16T06:17:20.565Z,25.75
2022-11-16T06:27:22.720Z,21.63
2022-11-16T06:37:24.967Z,23.52
2022-11-16T06:47:27.237Z,16.92
2022-11-16T06:57:29.406Z,15.63
2022-11-16T07:07:32.100Z,10.88
2022-11-16T07:17:34.304Z,16.00
2022-11-16T07:27:36.581Z,18.98
2022-11-16T07:37:38.792Z,23.58
2022-11-16T07:47:41.221Z,19.98
2022-11-16T07:57:43.446Z,17.23
2022-11-16T08:07:45.630Z,19.30
2022-11-16T08:17:47.858Z,22.38
2022-11-16T08:27:50.078Z,59.92
2022-11-16T08:37:52.488Z,74.50
2022-11-16T08:48:03.612Z,51.53
2022-11-16T08:58:06.327Z,57.47
2022-11-16T09:08:08.451Z,57.90
2022-11-16T09:18:10.637Z,54.88
2022-11-16T09:28:12.843Z,46.40
2022-11-16T09:38:22.134Z,43.50
2022-11-16T09:48:36.861Z,58.20
2022-11-16T09:58:48.843Z,80.93
2022-11-16T10:08:53.220Z,77.50
2022-11-16T10:19:13.663Z,53.67
2022-11-16T10:29:41.547Z,57.30
2022-11-16T10:39:44.117Z,39.53
2022-11-16T10:49:56.520Z,41.78
2022-11-16T10:59:59.282Z,60.72
2022-11-16T11:10:01.921Z,62.22
2022-11-16T11:20:17.275Z,59.38
2022-11-16T11:30:21.412Z,47.70
2022-11-16T11:40:28.534Z,50.50
2022-11-16T11:50:52.963Z,56.33
2022-11-16T12:01:32.258Z,74.32
2022-11-16T12:11:37.577Z,74.85
2022-11-16T12:22:08.764Z,76.82
2022-11-16T12:32:28.015Z,136.02
2022-11-16T12:42:40.499Z,87.90
2022-11-16T12:52:57.214Z,78.05
2022-11-16T13:03:44.526Z,71.85
2022-11-16T13:13:53.632Z,59.00
2022-11-16T13:24:08.993Z,51.72
2022-11-16T13:34:20.312Z,59.70
2022-11-16T13:44:26.603Z,64.47
2022-11-16T13:54:46.839Z,72.43
2022-11-16T14:04:58.067Z,47.65
2022-11-16T14:15:19.720Z,29.55
2022-11-16T14:25:30.964Z,47.67
2022-11-16T14:35:37.638Z,37.92
2022-11-16T14:45:39.959Z,30.77
2022-11-16T14:55:44.156Z,58.17
2022-11-16T15:05:46.460Z,77.70
2022-11-16T15:15:50.340Z,99.93
2022-11-16T15:25:54.941Z,55.85
2022-11-16T15:35:57.762Z,52.30
2022-11-16T15:46:01.302Z,78.65
2022-11-16T15:56:25.722Z,55.88
2022-11-16T16:07:10.332Z,59.75
2022-11-16T16:17:22.952Z,57.63
2022-11-16T16:27:27.326Z,42.55
2022-11-16T16:37:31.448Z,72.15
2022-11-16T16:47:33.722Z,30.55
2022-11-16T16:57:35.988Z,29.35
2022-11-16T17:07:38.274Z,38.60
2022-11-16T17:17:42.914Z,94.18
2022-11-16T17:27:45.055Z,132.50
2022-11-16T17:37:47.244Z,115.40
2022-11-16T17:47:49.433Z,60.15
2022-11-16T17:57:51.658Z,22.02
2022-11-16T18:07:53.845Z,28.02
2022-11-16T18:17:56.975Z,47.13
2022-11-16T18:27:59.169Z,60.65
2022-11-16T18:38:02.356Z,85.82
2022-11-16T18:48:05.025Z,89.75
2022-11-16T18:58:22.792Z,44.15
2022-11-16T19:08:30.252Z,46.35
2022-11-16T19:18:32.710Z,28.65
2022-11-16T19:28:45.836Z,38.30
2022-11-16T19:38:48.670Z,40.22
2022-11-16T19:48:52.085Z,51.35
2022-11-16T19:58:54.368Z,29.40
2022-11-16T20:09:00.942Z,24.15
2022-11-16T20:19:03.736Z,41.95
2022-11-16T20:29:05.932Z,25.83
2022-11-16T20:39:13.053Z,27.23
2022-11-16T20:49:15.455Z,29.85
2022-11-16T20:59:17.869Z,78.20
2022-11-16T21:09:22.970Z,37.90
2022-11-16T21:19:25.275Z,21.75
2022-11-16T21:29:28.346Z,24.88
2022-11-16T21:40:10.813Z,11.65
2022-11-16T22:00:35.184Z,21.20
2022-11-16T22:10:37.922Z,18.00
2022-11-16T22:20:40.486Z,23.48
2022-11-16T22:30:46.148Z,23.45
2022-11-16T22:40:56.209Z,14.35
2022-11-16T22:51:24.412Z,23.77
2022-11-16T23:01:26.944Z,21.57
2022-11-16T23:11:48.288Z,12.07
2022-11-16T23:22:09.610Z,14.32
2022-11-16T23:32:12.122Z,9.95
2022-11-16T23:42:33.380Z,16.08
2022-11-16T23:52:35.891Z,4.57
